Time;durP1;ratioP1;P1;durP2;ratioP2;P2;SDS_P1;SDS_P2;PMS_P1;PMS_P2;Temp;Humidity;BMP_temperature;BMP_pressure;BME280_temperature;BME280_humidity;BME280_pressure;Samples;Min_cycle;Max_cycle;Signal;HPM_P1;HPM_P2
2024/01/24 00:01:13;;;;;;;3.75;1.63;;;3.40;94.20;;;;;;4990109;28;20038;-74
2024/01/24 00:03:39;;;;;;;3.45;1.60;;;3.50;93.80;;;;;;4993037;28;20040;-73
2024/01/24 00:06:06;;;;;;;3.63;1.95;;;3.60;93.70;;;;;;4992112;28;20030;-74
2024/01/24 00:08:33;;;;;;;5.35;1.90;;;3.60;93.60;;;;;;4991415;28;20439;-73
2024/01/24 00:10:58;;;;;;;3.53;2.05;;;3.50;93.80;;;;;;4991460;28;20061;-74
2024/01/24 00:13:24;;;;;;;3.38;1.77;;;3.40;94.30;;;;;;4992163;28;20101;-74
2024/01/24 00:15:50;;;;;;;3.90;2.10;;;3.30;95.20;;;;;;4991315;28;20496;-74
2024/01/24 00:18:15;;;;;;;3.40;1.55;;;3.10;95.20;;;;;;4991528;28;20046;-73
2024/01/24 00:20:41;;;;;;;4.78;2.00;;;3.10;94.60;;;;;;4990980;28;20034;-74
2024/01/24 00:23:07;;;;;;;3.28;1.65;;;3.40;94.10;;;;;;4991040;28;20049;-73
2024/01/24 00:25:32;;;;;;;4.43;1.88;;;3.60;93.70;;;;;;4991513;28;20121;-74
2024/01/24 00:27:58;;;;;;;3.42;1.58;;;4.00;93.00;;;;;;4991727;28;20041;-74
2024/01/24 00:30:24;;;;;;;4.35;1.88;;;3.80;93.30;;;;;;4990206;28;20984;-74
2024/01/24 00:32:49;;;;;;;4.70;1.77;;;3.70;93.50;;;;;;4992019;28;20036;-74
2024/01/24 00:35:15;;;;;;;3.40;1.60;;;3.60;94.10;;;;;;4990353;28;20042;-73
2024/01/24 00:37:40;;;;;;;6.72;2.20;;;3.40;94.70;;;;;;4990638;28;20025;-74
2024/01/24 00:40:07;;;;;;;5.20;2.10;;;3.40;94.10;;;;;;4990446;28;20518;-74
2024/01/24 00:42:33;;;;;;;4.90;2.20;;;3.30;94.40;;;;;;4990776;28;20033;-73
2024/01/24 00:44:58;;;;;;;5.40;2.47;;;3.40;94.50;;;;;;4991190;28;20042;-74
2024/01/24 00:47:24;;;;;;;6.47;2.50;;;3.40;94.20;;;;;;4991976;28;20124;-75
2024/01/24 00:49:50;;;;;;;4.63;2.30;;;3.40;94.30;;;;;;4991031;28;20769;-74
2024/01/24 00:52:15;;;;;;;5.57;2.80;;;3.50;94.00;;;;;;4990391;28;20546;-74
2024/01/24 00:54:41;;;;;;;6.47;2.78;;;3.60;93.90;;;;;;4991455;28;20507;-74
2024/01/24 00:57:07;;;;;;;4.93;2.28;;;3.50;94.30;;;;;;4994836;28;20022;-74
2024/01/24 00:59:32;;;;;;;4.85;2.63;;;3.40;94.50;;;;;;4996669;28;21894;-74
2024/01/24 01:01:58;;;;;;;6.47;2.83;;;3.30;94.90;;;;;;4995159;28;20018;-74
2024/01/24 01:04:24;;;;;;;5.68;2.60;;;3.30;95.50;;;;;;4998220;28;20041;-74
2024/01/24 01:06:50;;;;;;;5.72;2.88;;;3.20;95.40;;;;;;4994575;28;20414;-73
2024/01/24 01:09:15;;;;;;;6.15;3.25;;;3.20;95.00;;;;;;5001188;28;20083;-73
2024/01/24 01:11:41;;;;;;;6.05;2.92;;;3.20;94.70;;;;;;4994624;28;20423;-73
2024/01/24 01:14:07;;;;;;;8.55;2.83;;;3.30;94.80;;;;;;4991115;28;20049;-74
2024/01/24 01:16:33;;;;;;;5.70;1.80;;;3.50;95.00;;;;;;4999513;28;20467;-74
2024/01/24 01:18:58;;;;;;;5.53;2.55;;;3.50;94.60;;;;;;5005086;28;20029;-74
2024/01/24 01:21:24;;;;;;;4.00;1.90;;;3.60;94.70;;;;;;4996117;28;20448;-74
2024/01/24 01:23:50;;;;;;;5.68;2.20;;;3.70;94.70;;;;;;5000175;28;20034;-74
2024/01/24 01:26:15;;;;;;;4.38;2.33;;;3.70;94.40;;;;;;5000036;28;20029;-74
2024/01/24 01:28:41;;;;;;;6.13;2.72;;;3.70;94.40;;;;;;4994110;28;20065;-73
2024/01/24 01:31:07;;;;;;;4.13;2.40;;;3.70;94.20;;;;;;4999908;28;20041;-74
2024/01/24 01:33:32;;;;;;;5.15;2.58;;;3.50;94.90;;;;;;5004392;28;20037;-73
2024/01/24 01:35:58;;;;;;;6.30;2.80;;;3.30;95.20;;;;;;4998816;28;20042;-74
2024/01/24 01:38:23;;;;;;;4.47;2.30;;;3.30;94.90;;;;;;4998162;28;20034;-73
2024/01/24 01:40:49;;;;;;;5.55;2.38;;;3.10;95.60;;;;;;5007012;28;20053;-73
2024/01/24 01:43:15;;;;;;;6.47;2.25;;;3.20;95.40;;;;;;5001911;28;20451;-73
2024/01/24 01:45:41;;;;;;;3.72;1.85;;;3.20;95.00;;;;;;4998311;28;20033;-73
2024/01/24 01:48:08;;;;;;;6.20;2.60;;;3.30;95.10;;;;;;4995792;28;20381;-73
2024/01/24 01:50:34;;;;;;;5.50;2.17;;;3.40;94.70;;;;;;4997721;28;20034;-74
2024/01/24 01:53:03;;;;;;;3.55;2.20;;;3.30;95.20;;;;;;4984020;28;20048;-73
2024/01/24 01:55:31;;;;;;;4.78;2.30;;;3.30;94.90;;;;;;5004667;28;20072;-74
2024/01/24 01:57:58;;;;;;;4.15;1.83;;;3.30;94.80;;;;;;5002129;28;20105;-74
2024/01/24 02:00:25;;;;;;;3.65;1.42;;;3.20;95.30;;;;;;5003157;28;20096;-74
2024/01/24 02:02:51;;;;;;;3.72;1.40;;;3.20;95.10;;;;;;5000641;28;20037;-73
2024/01/24 02:05:17;;;;;;;4.00;2.00;;;3.30;94.70;;;;;;4980090;28;20649;-73
2024/01/24 02:07:44;;;;;;;3.40;1.80;;;3.30;95.20;;;;;;5001821;28;20103;-73
2024/01/24 02:10:11;;;;;;;4.70;2.20;;;3.20;95.20;;;;;;5001994;28;20451;-73
2024/01/24 02:12:37;;;;;;;7.22;3.70;;;3.00;95.30;;;;;;4995946;28;20248;-73
2024/01/24 02:15:03;;;;;;;5.43;2.65;;;2.80;96.50;;;;;;4998819;28;20186;-74
2024/01/24 02:17:29;;;;;;;6.47;2.47;;;2.70;96.50;;;;;;5002498;28;20487;-73
2024/01/24 02:19:54;;;;;;;4.88;2.33;;;2.60;96.00;;;;;;4995129;28;20115;-73
2024/01/24 02:22:20;;;;;;;4.63;2.20;;;2.70;95.70;;;;;;5004208;28;20156;-74
2024/01/24 02:24:45;;;;;;;4.03;1.60;;;2.90;95.50;;;;;;4998458;28;20093;-74
2024/01/24 02:27:11;;;;;;;5.10;1.83;;;3.00;95.50;;;;;;4997545;28;20434;-73
2024/01/24 02:29:37;;;;;;;8.63;1.85;;;3.20;94.90;;;;;;4997340;28;20046;-74
2024/01/24 02:32:03;;;;;;;4.45;1.67;;;3.20;94.80;;;;;;5001278;28;20120;-74
2024/01/24 02:34:28;;;;;;;4.47;1.85;;;3.40;94.30;;;;;;4995987;28;20496;-74
2024/01/24 02:36:54;;;;;;;4.43;2.33;;;3.20;94.70;;;;;;4995795;28;20033;-73
2024/01/24 02:39:21;;;;;;;4.60;2.17;;;3.10;94.80;;;;;;5000852;28;20057;-74
2024/01/24 02:41:46;;;;;;;5.18;2.17;;;3.00;95.10;;;;;;5000721;28;20041;-74
2024/01/24 02:44:12;;;;;;;5.35;2.58;;;2.80;95.50;;;;;;5002177;28;20034;-73
2024/01/24 02:46:38;;;;;;;4.13;1.90;;;2.70;96.00;;;;;;4998484;28;20021;-73
2024/01/24 02:49:03;;;;;;;4.32;2.08;;;2.60;96.00;;;;;;5002807;28;20029;-73
2024/01/24 02:51:29;;;;;;;3.05;1.52;;;3.00;95.00;;;;;;4996155;28;20483;-73
2024/01/24 02:53:54;;;;;;;6.32;1.95;;;3.30;94.50;;;;;;5000477;28;20032;-73
2024/01/24 02:56:20;;;;;;;4.57;2.20;;;3.00;94.90;;;;;;5003311;28;20038;-74
2024/01/24 02:58:46;;;;;;;6.13;2.67;;;2.80;95.40;;;;;;4999633;28;20038;-74
2024/01/24 03:01:12;;;;;;;6.05;2.63;;;2.70;96.20;;;;;;4996802;28;20053;-74
2024/01/24 03:03:39;;;;;;;5.65;2.47;;;2.70;96.70;;;;;;4996966;28;20030;-74
2024/01/24 03:06:05;;;;;;;5.78;2.58;;;2.60;96.10;;;;;;4996263;28;20368;-73
2024/01/24 03:08:56;;;;;;;5.72;3.03;;;2.60;95.90;;;;;;4996207;28;20053;-73
2024/01/24 03:11:23;;;;;;;5.82;2.42;;;2.60;95.80;;;;;;4995669;28;20049;-74
2024/01/24 03:13:48;;;;;;;4.13;1.70;;;2.50;95.80;;;;;;4996863;28;20064;-74
2024/01/24 03:16:14;;;;;;;5.15;1.90;;;2.70;95.70;;;;;;4997220;28;20476;-74
2024/01/24 03:18:40;;;;;;;5.40;1.95;;;2.70;95.50;;;;;;4996509;28;20045;-73
2024/01/24 03:21:07;;;;;;;6.07;2.00;;;2.70;95.60;;;;;;4996459;28;20081;-74
2024/01/24 03:23:33;;;;;;;3.15;1.55;;;2.90;95.30;;;;;;4996998;28;20502;-74
2024/01/24 03:25:58;;;;;;;3.47;1.55;;;2.80;95.20;;;;;;4997114;28;20121;-74
2024/01/24 03:28:24;;;;;;;5.05;2.40;;;2.90;95.30;;;;;;4996705;28;20128;-73
2024/01/24 03:30:50;;;;;;;4.03;1.73;;;2.90;95.20;;;;;;4997018;28;21211;-74
2024/01/24 03:33:15;;;;;;;4.22;2.20;;;2.80;95.20;;;;;;4996885;28;20033;-73
2024/01/24 03:35:41;;;;;;;4.28;2.00;;;2.70;95.50;;;;;;4996032;28;20456;-73
2024/01/24 03:38:08;;;;;;;4.80;2.25;;;2.60;95.40;;;;;;4997748;28;20395;-73
2024/01/24 03:40:33;;;;;;;6.18;2.50;;;2.60;95.30;;;;;;4996694;28;20062;-73
2024/01/24 03:42:59;;;;;;;5.05;2.33;;;2.50;95.50;;;;;;4996471;28;20041;-74
2024/01/24 03:45:24;;;;;;;3.75;1.50;;;2.60;95.60;;;;;;4996962;28;20034;-74
2024/01/24 03:47:50;;;;;;;3.83;1.40;;;2.50;95.80;;;;;;4996647;28;21912;-74
2024/01/24 03:50:16;;;;;;;6.47;1.60;;;2.60;95.50;;;;;;4996926;28;20030;-73
2024/01/24 03:52:41;;;;;;;3.95;1.67;;;2.70;95.40;;;;;;4997216;28;20036;-74
2024/01/24 03:55:07;;;;;;;4.53;1.52;;;2.70;95.50;;;;;;4995820;28;20041;-74
2024/01/24 03:57:33;;;;;;;3.97;1.70;;;2.80;95.40;;;;;;4996404;28;20427;-74
2024/01/24 03:59:59;;;;;;;3.60;1.80;;;2.90;95.10;;;;;;4997176;28;20099;-73
2024/01/24 04:02:24;;;;;;;4.18;2.13;;;2.70;95.30;;;;;;4994441;28;21318;-74
2024/01/24 04:04:50;;;;;;;6.88;2.28;;;2.60;95.70;;;;;;4989786;28;20033;-74
2024/01/24 04:07:15;;;;;;;5.10;2.35;;;2.50;96.20;;;;;;4990703;28;20046;-74
2024/01/24 04:09:42;;;;;;;4.95;2.28;;;2.30;96.60;;;;;;4990878;28;20061;-74
2024/01/24 04:12:08;;;;;;;4.72;2.25;;;2.20;96.70;;;;;;4991706;28;20057;-74
2024/01/24 04:14:33;;;;;;;4.82;1.98;;;2.20;97.00;;;;;;4990944;28;20038;-73
2024/01/24 04:16:59;;;;;;;3.25;1.45;;;2.20;96.50;;;;;;4989487;28;20032;-74
2024/01/24 04:19:25;;;;;;;3.42;1.70;;;2.40;96.20;;;;;;4990051;28;20105;-74
2024/01/24 04:21:50;;;;;;;3.38;1.70;;;2.60;96.00;;;;;;4988307;28;20057;-74
2024/01/24 04:24:16;;;;;;;4.25;1.63;;;2.40;96.10;;;;;;4988074;28;20029;-73
2024/01/24 04:26:42;;;;;;;5.22;2.20;;;2.50;95.90;;;;;;4988721;28;20038;-73
2024/01/24 04:29:08;;;;;;;5.15;2.10;;;2.30;96.40;;;;;;4989123;28;20041;-73
2024/01/24 04:31:33;;;;;;;4.38;2.22;;;2.30;96.30;;;;;;4988474;28;20041;-74
2024/01/24 04:33:59;;;;;;;5.85;2.53;;;2.30;96.40;;;;;;4989477;28;20040;-73
2024/01/24 04:36:25;;;;;;;5.75;2.28;;;2.30;96.20;;;;;;4990276;28;20041;-73
2024/01/24 04:38:51;;;;;;;4.32;1.90;;;2.20;96.20;;;;;;4991387;28;20034;-74
2024/01/24 04:41:17;;;;;;;3.08;1.70;;;2.10;96.60;;;;;;4992375;28;20034;-74
2024/01/24 04:43:42;;;;;;;3.97;1.80;;;2.30;96.40;;;;;;4992527;28;20108;-74
2024/01/24 04:46:15;;;;;;;2.88;1.30;;;2.40;96.00;;;;;;4991672;28;20049;-73
2024/01/24 04:48:42;;;;;;;4.93;1.60;;;2.40;96.20;;;;;;4990605;28;20912;-73
2024/01/24 04:51:08;;;;;;;3.88;1.85;;;2.40;96.10;;;;;;4989698;28;20072;-74
2024/01/24 04:53:34;;;;;;;4.80;1.88;;;2.40;96.30;;;;;;4989252;28;20120;-73
2024/01/24 04:55:59;;;;;;;4.18;1.75;;;2.50;95.90;;;;;;4991733;28;20646;-75
2024/01/24 04:58:25;;;;;;;3.83;1.92;;;2.50;96.10;;;;;;4991795;28;20038;-74
2024/01/24 05:00:51;;;;;;;5.95;2.40;;;2.30;96.00;;;;;;4988486;28;20042;-74
2024/01/24 05:03:16;;;;;;;4.22;1.90;;;2.40;96.20;;;;;;4987562;28;20026;-74
2024/01/24 05:05:42;;;;;;;3.90;1.98;;;2.30;97.00;;;;;;4989558;28;20041;-74
2024/01/24 05:08:08;;;;;;;5.10;2.03;;;2.10;97.40;;;;;;4988798;28;20037;-73
2024/01/24 05:10:33;;;;;;;3.17;1.30;;;2.10;96.90;;;;;;4987569;28;20038;-74
2024/01/24 05:12:59;;;;;;;4.03;1.90;;;2.00;97.10;;;;;;4988857;28;20030;-75
2024/01/24 05:15:25;;;;;;;4.68;2.20;;;2.10;97.00;;;;;;4989176;28;20468;-74
2024/01/24 05:17:50;;;;;;;3.80;1.83;;;2.10;96.70;;;;;;4987621;28;20893;-74
2024/01/24 05:20:17;;;;;;;4.03;1.90;;;2.10;97.00;;;;;;4988776;28;20040;-74
2024/01/24 05:22:43;;;;;;;2.88;1.45;;;1.90;96.90;;;;;;4989194;28;20026;-74
2024/01/24 05:25:09;;;;;;;6.07;1.67;;;1.90;97.20;;;;;;4988073;28;20135;-74
2024/01/24 05:27:34;;;;;;;2.80;1.35;;;2.10;96.60;;;;;;4990508;28;20435;-74
2024/01/24 05:30:00;;;;;;;3.53;1.40;;;2.30;96.30;;;;;;4993562;28;20701;-74
2024/01/24 05:32:26;;;;;;;3.58;1.20;;;2.50;95.90;;;;;;4990556;28;20033;-74
2024/01/24 05:34:51;;;;;;;3.85;1.65;;;2.40;96.00;;;;;;4991733;28;20104;-74
2024/01/24 05:37:17;;;;;;;3.70;1.90;;;2.30;96.20;;;;;;4992644;28;20088;-75
2024/01/24 05:39:43;;;;;;;3.70;1.95;;;2.30;96.10;;;;;;4992339;28;20049;-74
2024/01/24 05:42:08;;;;;;;5.15;1.90;;;2.20;96.30;;;;;;4991293;28;20399;-72
2024/01/24 05:44:34;;;;;;;4.93;1.95;;;2.10;96.70;;;;;;4992780;28;20076;-72
2024/01/24 05:47:00;;;;;;;4.40;1.95;;;2.10;97.20;;;;;;4991094;28;20064;-72
2024/01/24 05:49:26;;;;;;;6.55;2.33;;;2.00;97.30;;;;;;4991749;28;21107;-72
2024/01/24 05:51:52;;;;;;;5.90;2.28;;;1.90;97.00;;;;;;4992311;28;20041;-72
2024/01/24 05:54:17;;;;;;;6.43;1.65;;;2.00;96.90;;;;;;4991163;28;20632;-73
2024/01/24 05:56:43;;;;;;;3.65;1.23;;;2.40;96.00;;;;;;4991482;28;20537;-72
2024/01/24 05:59:09;;;;;;;4.13;1.73;;;2.70;95.60;;;;;;4992439;28;20694;-72
2024/01/24 06:01:36;;;;;;;3.22;1.48;;;2.70;95.50;;;;;;4991042;28;20025;-73
2024/01/24 06:04:02;;;;;;;3.70;1.52;;;2.60;95.80;;;;;;4991044;28;20395;-73
2024/01/24 06:06:27;;;;;;;3.92;1.75;;;2.50;95.90;;;;;;4991949;28;20034;-73
2024/01/24 06:08:53;;;;;;;4.18;2.25;;;2.10;96.40;;;;;;4992582;28;20069;-73
2024/01/24 06:11:19;;;;;;;3.97;1.83;;;2.10;96.50;;;;;;4991766;28;20147;-73
2024/01/24 06:13:44;;;;;;;5.35;1.95;;;2.00;97.00;;;;;;4990499;28;21512;-73
2024/01/24 06:16:10;;;;;;;3.83;1.38;;;2.00;97.00;;;;;;4992056;28;20042;-72
2024/01/24 06:18:36;;;;;;;4.97;1.83;;;2.10;96.90;;;;;;4990624;28;20127;-75
2024/01/24 06:21:01;;;;;;;4.82;1.73;;;2.30;96.40;;;;;;4996783;28;20032;-73
2024/01/24 06:23:27;;;;;;;3.92;1.83;;;2.20;96.30;;;;;;4991782;28;20026;-74
2024/01/24 06:25:53;;;;;;;3.70;1.92;;;2.10;96.70;;;;;;4990427;28;20095;-73
2024/01/24 06:28:19;;;;;;;4.35;2.20;;;1.90;97.70;;;;;;4989030;28;20033;-72
2024/01/24 06:30:45;;;;;;;4.57;1.83;;;2.20;99.90;;;;;;4991085;28;20500;-74
2024/01/24 06:33:12;;;;;;;8.48;2.60;;;2.30;97.10;;;;;;4991505;28;20476;-73
2024/01/24 06:35:37;;;;;;;3.78;2.10;;;2.20;97.10;;;;;;4990862;28;20111;-73
2024/01/24 06:38:03;;;;;;;6.57;1.67;;;2.20;97.30;;;;;;4991762;28;20503;-73
2024/01/24 06:40:29;;;;;;;5.65;1.75;;;2.00;97.60;;;;;;4990506;28;21056;-74
2024/01/24 06:42:55;;;;;;;3.55;1.60;;;2.10;97.10;;;;;;4990381;28;20025;-73
2024/01/24 06:45:21;;;;;;;3.90;1.88;;;2.10;97.00;;;;;;4991370;28;20038;-73
2024/01/24 06:47:47;;;;;;;4.30;1.63;;;2.10;97.20;;;;;;4990604;28;20124;-73
2024/01/24 06:50:13;;;;;;;3.95;1.65;;;2.00;98.10;;;;;;4990919;28;20148;-73
2024/01/24 06:52:40;;;;;;;5.35;1.80;;;1.80;98.40;;;;;;4991832;28;20538;-73
2024/01/24 06:55:08;;;;;;;5.30;1.40;;;1.80;97.80;;;;;;4990186;28;20085;-73
2024/01/24 06:57:34;;;;;;;5.10;2.25;;;2.20;97.00;;;;;;4991341;28;20468;-74
2024/01/24 07:00:00;;;;;;;3.92;1.95;;;2.40;96.40;;;;;;4990904;28;20507;-74
2024/01/24 07:02:26;;;;;;;4.53;2.20;;;2.60;96.00;;;;;;4989763;28;20062;-74
2024/01/24 07:04:51;;;;;;;6.80;2.63;;;2.70;95.80;;;;;;4990106;28;20041;-74
2024/01/24 07:07:17;;;;;;;4.30;2.05;;;2.60;96.00;;;;;;4992556;28;20026;-74
2024/01/24 07:09:43;;;;;;;4.55;2.40;;;2.50;96.30;;;;;;4989963;28;20119;-73
2024/01/24 07:12:09;;;;;;;3.80;2.05;;;2.60;96.20;;;;;;4991152;28;20051;-73
2024/01/24 07:14:34;;;;;;;5.13;2.30;;;2.60;96.20;;;;;;4989782;28;20029;-73
2024/01/24 07:17:00;;;;;;;6.30;2.25;;;2.70;96.10;;;;;;4971356;28;20392;-74
2024/01/24 07:19:26;;;;;;;5.32;2.20;;;2.70;96.20;;;;;;4991576;28;20476;-74
2024/01/24 07:21:51;;;;;;;6.25;2.22;;;2.50;96.60;;;;;;4990123;28;20869;-74
2024/01/24 07:24:17;;;;;;;7.47;2.05;;;2.30;97.10;;;;;;4989474;28;20068;-74
2024/01/24 07:26:43;;;;;;;5.88;1.98;;;2.50;96.60;;;;;;4990545;28;20121;-74
2024/01/24 07:29:10;;;;;;;3.80;1.80;;;2.60;96.30;;;;;;4988739;28;20065;-74
2024/01/24 07:31:37;;;;;;;3.40;1.70;;;2.70;96.20;;;;;;4988828;28;20088;-73
2024/01/24 07:34:03;;;;;;;3.38;1.50;;;2.80;96.00;;;;;;4990120;28;20709;-74
2024/01/24 07:36:29;;;;;;;6.45;2.30;;;2.80;96.10;;;;;;4992217;28;20053;-73
2024/01/24 07:38:54;;;;;;;3.97;1.83;;;2.70;97.00;;;;;;4992640;28;22598;-73
2024/01/24 07:41:20;;;;;;;4.05;1.77;;;2.50;97.70;;;;;;4989956;28;20373;-75
2024/01/24 07:43:45;;;;;;;7.25;1.92;;;2.40;98.10;;;;;;4989257;28;20061;-75
2024/01/24 07:46:11;;;;;;;4.35;1.65;;;2.20;98.90;;;;;;4986096;28;20032;-76
2024/01/24 07:48:37;;;;;;;5.68;1.90;;;2.30;99.20;;;;;;4987735;28;20033;-76
2024/01/24 07:51:04;;;;;;;3.38;1.63;;;2.20;98.70;;;;;;4988175;28;20037;-75
2024/01/24 07:53:30;;;;;;;5.60;1.70;;;2.30;98.00;;;;;;4988472;28;20049;-76
2024/01/24 07:55:56;;;;;;;4.07;2.00;;;2.30;97.80;;;;;;4989053;28;20077;-77
2024/01/24 07:58:22;;;;;;;10.18;3.35;;;2.40;98.00;;;;;;4988138;28;20037;-75
2024/01/24 08:00:48;;;;;;;4.95;2.20;;;2.40;98.60;;;;;;4989149;28;20030;-76
2024/01/24 08:03:13;;;;;;;3.97;2.08;;;2.50;98.30;;;;;;4990250;28;20096;-75
2024/01/24 08:05:39;;;;;;;4.07;2.03;;;2.50;98.10;;;;;;4990198;28;20088;-76
2024/01/24 08:08:05;;;;;;;4.95;2.40;;;2.60;97.50;;;;;;4989307;28;20038;-76
2024/01/24 08:10:31;;;;;;;4.47;2.25;;;2.60;97.80;;;;;;4990907;28;20033;-76
2024/01/24 08:12:56;;;;;;;5.90;2.42;;;2.60;97.90;;;;;;4988680;28;20136;-75
2024/01/24 08:15:22;;;;;;;5.00;1.80;;;2.60;97.80;;;;;;4988368;28;20064;-76
2024/01/24 08:17:48;;;;;;;4.18;2.10;;;2.60;98.10;;;;;;4990304;28;20030;-77
2024/01/24 08:20:13;;;;;;;4.82;2.08;;;2.60;98.30;;;;;;4989487;28;20172;-76
2024/01/24 08:22:39;;;;;;;4.07;2.17;;;2.70;97.70;;;;;;4988196;28;20041;-77
2024/01/24 08:25:06;;;;;;;5.05;2.33;;;2.70;98.00;;;;;;4990430;28;20117;-77
2024/01/24 08:27:31;;;;;;;7.38;2.80;;;2.50;98.50;;;;;;4989637;28;20144;-76
2024/01/24 08:29:59;;;;;;;5.35;2.58;;;2.40;98.70;;;;;;4990247;28;20484;-75
2024/01/24 08:32:25;;;;;;;5.07;2.50;;;2.40;98.70;;;;;;4989596;28;20021;-73
2024/01/24 08:34:51;;;;;;;5.03;2.75;;;2.40;98.40;;;;;;4989305;28;20137;-76
2024/01/24 08:37:17;;;;;;;4.57;2.65;;;2.40;98.90;;;;;;4989380;28;20380;-75
2024/01/24 08:39:43;;;;;;;6.97;2.53;;;2.40;99.30;;;;;;4988469;28;22135;-76
2024/01/24 08:42:08;;;;;;;4.53;2.28;;;2.50;98.50;;;;;;4989457;28;20049;-77
2024/01/24 08:44:34;;;;;;;4.30;2.38;;;2.40;98.60;;;;;;4989348;28;20048;-76
2024/01/24 08:47:00;;;;;;;7.35;2.47;;;2.50;99.00;;;;;;4988827;28;20034;-76
2024/01/24 08:49:25;;;;;;;4.65;2.40;;;2.60;98.40;;;;;;4989848;28;20037;-76
2024/01/24 08:51:51;;;;;;;4.03;2.13;;;2.70;98.80;;;;;;4989125;28;20759;-76
2024/01/24 08:54:17;;;;;;;4.47;2.15;;;2.60;99.00;;;;;;4990179;28;20062;-76
2024/01/24 08:56:42;;;;;;;5.68;2.60;;;2.80;98.90;;;;;;4990086;28;20041;-76
2024/01/24 08:59:08;;;;;;;3.38;1.67;;;2.90;98.70;;;;;;4988955;28;20030;-76
2024/01/24 09:01:34;;;;;;;4.63;2.10;;;3.00;98.10;;;;;;4989583;28;20448;-76
2024/01/24 09:03:59;;;;;;;3.75;2.33;;;3.10;97.80;;;;;;4993250;28;20628;-76
2024/01/24 09:06:25;;;;;;;8.57;3.10;;;3.20;97.90;;;;;;4993235;28;20042;-76
2024/01/24 09:08:52;;;;;;;6.88;3.40;;;2.80;99.40;;;;;;4994945;28;20030;-77
2024/01/24 09:11:21;;;;;;;6.53;2.90;;;2.60;99.10;;;;;;4995703;28;20569;-77
2024/01/24 09:13:47;;;;;;;7.32;2.90;;;2.70;99.80;;;;;;4995097;28;20037;-77
2024/01/24 09:16:16;;;;;;;5.32;2.55;;;2.80;99.30;;;;;;4989942;28;20050;-75
2024/01/24 09:18:45;;;;;;;4.60;2.28;;;2.90;98.50;;;;;;4992637;28;20042;-75
2024/01/24 09:21:10;;;;;;;5.60;2.92;;;3.10;99.20;;;;;;4992452;28;21144;-76
2024/01/24 09:23:36;;;;;;;4.45;2.53;;;3.20;99.00;;;;;;4989735;28;20099;-76
2024/01/24 09:26:03;;;;;;;7.20;3.60;;;3.30;98.50;;;;;;4990180;28;20068;-76
2024/01/24 09:28:29;;;;;;;6.50;3.40;;;3.40;97.80;;;;;;4988774;28;20064;-76
2024/01/24 09:30:54;;;;;;;4.90;2.40;;;3.40;97.70;;;;;;4990135;28;20439;-76
2024/01/24 09:33:20;;;;;;;6.05;2.90;;;3.40;99.10;;;;;;4990160;28;20034;-76
2024/01/24 09:35:46;;;;;;;6.00;2.55;;;3.50;98.40;;;;;;4988866;28;20069;-76
2024/01/24 09:38:13;;;;;;;5.35;2.50;;;3.50;98.40;;;;;;4990299;28;20045;-76
2024/01/24 09:40:39;;;;;;;5.88;2.28;;;3.60;98.20;;;;;;4990418;28;20184;-76
2024/01/24 09:43:09;;;;;;;7.03;2.97;;;3.50;98.70;;;;;;4989416;28;20041;-76
2024/01/24 09:45:40;;;;;;;6.40;3.58;;;3.30;99.00;;;;;;4989264;28;20026;-76
2024/01/24 09:48:11;;;;;;;7.43;3.25;;;3.40;99.40;;;;;;4989482;28;20408;-76
2024/01/24 09:50:37;;;;;;;8.52;3.13;;;3.50;99.00;;;;;;4990500;28;20125;-76
2024/01/24 09:53:05;;;;;;;6.85;2.90;;;3.60;99.10;;;;;;4989687;28;20525;-76
2024/01/24 09:55:32;;;;;;;12.50;3.78;;;3.60;98.90;;;;;;4971246;28;20049;-76
2024/01/24 09:57:58;;;;;;;5.20;3.15;;;3.60;98.10;;;;;;4990187;28;20048;-76
2024/01/24 10:00:24;;;;;;;6.28;3.03;;;3.80;97.40;;;;;;4989768;28;20423;-76
2024/01/24 10:02:50;;;;;;;5.22;2.70;;;3.90;97.80;;;;;;4988639;28;20502;-76
2024/01/24 10:05:20;;;;;;;5.63;2.58;;;4.00;97.70;;;;;;4989144;28;20111;-77
2024/01/24 10:07:46;;;;;;;6.90;3.35;;;4.00;97.60;;;;;;4988771;28;20037;-76
2024/01/24 10:10:13;;;;;;;6.70;3.17;;;4.10;97.80;;;;;;4988762;28;20120;-76
2024/01/24 10:12:41;;;;;;;7.02;3.52;;;4.10;97.30;;;;;;4949832;28;1206440;-76
2024/01/24 10:15:08;;;;;;;7.28;3.53;;;4.10;97.20;;;;;;4993325;28;20049;-76
2024/01/24 10:17:33;;;;;;;8.32;3.70;;;4.10;97.50;;;;;;4992647;28;20046;-75
2024/01/24 10:20:00;;;;;;;8.23;4.03;;;4.10;97.40;;;;;;4993535;28;20030;-76
2024/01/24 10:22:25;;;;;;;7.20;4.30;;;4.10;97.30;;;;;;4992605;28;20037;-76
2024/01/24 10:24:54;;;;;;;7.65;3.90;;;4.00;97.30;;;;;;4992460;28;20723;-75
2024/01/24 10:27:20;;;;;;;9.38;4.25;;;4.00;97.60;;;;;;4991938;28;20495;-76
2024/01/24 10:29:45;;;;;;;8.07;3.97;;;4.00;97.60;;;;;;4994307;28;20042;-75
2024/01/24 10:32:12;;;;;;;9.38;5.13;;;4.00;97.60;;;;;;4993189;28;20033;-75
2024/01/24 10:34:38;;;;;;;10.85;4.35;;;4.00;97.80;;;;;;4992360;28;20045;-76
2024/01/24 10:37:07;;;;;;;7.50;3.95;;;3.90;97.90;;;;;;4992830;28;20971;-75
2024/01/24 10:39:35;;;;;;;6.30;3.53;;;3.90;97.60;;;;;;4992161;28;20730;-75
2024/01/24 10:42:08;;;;;;;7.82;3.53;;;4.10;97.70;;;;;;4992243;28;20033;-75
2024/01/24 10:44:35;;;;;;;7.67;3.60;;;4.10;97.70;;;;;;4992359;28;20116;-74
2024/01/24 10:47:09;;;;;;;7.63;3.50;;;4.20;97.60;;;;;;4992846;28;20380;-75
2024/01/24 10:49:36;;;;;;;5.53;2.70;;;4.20;97.60;;;;;;4992421;28;20185;-75
2024/01/24 10:52:02;;;;;;;6.57;3.08;;;4.30;97.80;;;;;;4992178;28;20430;-75
2024/01/24 10:54:30;;;;;;;5.22;2.80;;;4.40;97.30;;;;;;4992819;28;20852;-75
2024/01/24 10:56:59;;;;;;;7.53;3.55;;;4.50;96.90;;;;;;4991538;28;20496;-76
2024/01/24 10:59:27;;;;;;;7.38;2.72;;;4.80;96.40;;;;;;4991893;28;20034;-75
2024/01/24 11:01:53;;;;;;;6.13;3.03;;;4.90;96.50;;;;;;4993809;28;20027;-75
2024/01/24 11:04:21;;;;;;;6.05;3.13;;;4.90;96.80;;;;;;4992794;28;21708;-75
2024/01/24 11:06:58;;;;;;;8.15;3.88;;;4.90;96.80;;;;;;4991532;28;21009;-75
2024/01/24 11:09:39;;;;;;;8.05;4.05;;;4.80;97.40;;;;;;4991950;28;20042;-76
2024/01/24 11:12:05;;;;;;;6.18;3.80;;;4.80;97.60;;;;;;4990788;28;20056;-76
2024/01/24 11:14:33;;;;;;;14.10;4.97;;;4.70;97.30;;;;;;4991678;28;20030;-75
2024/01/24 11:16:59;;;;;;;7.80;4.13;;;4.80;97.30;;;;;;4991817;28;20484;-75
2024/01/24 11:19:27;;;;;;;8.27;4.20;;;4.90;97.30;;;;;;4991280;28;20930;-75
2024/01/24 11:21:54;;;;;;;7.82;4.07;;;5.00;97.30;;;;;;4993014;28;20030;-76
2024/01/24 11:24:44;;;;;;;6.60;3.65;;;5.20;97.00;;;;;;4991271;28;20038;-76
2024/01/24 11:27:33;;;;;;;7.68;3.67;;;5.30;96.00;;;;;;4992255;28;20064;-75
2024/01/24 11:30:22;;;;;;;6.57;3.45;;;5.30;96.10;;;;;;4974541;28;20056;-75
2024/01/24 11:32:47;;;;;;;10.05;3.50;;;5.30;95.80;;;;;;4978584;28;20044;-75
2024/01/24 11:35:38;;;;;;;6.63;3.90;;;5.40;96.30;;;;;;4991063;28;20389;-74
2024/01/24 11:38:16;;;;;;;8.13;4.22;;;5.70;96.00;;;;;;4990836;28;20045;-75
2024/01/24 11:40:43;;;;;;;8.88;4.30;;;5.60;96.00;;;;;;4991793;28;20061;-75
2024/01/24 11:43:26;;;;;;;9.25;4.50;;;5.60;96.00;;;;;;4991238;28;20612;-76
2024/01/24 11:45:56;;;;;;;7.82;4.10;;;5.80;95.60;;;;;;4991574;28;20033;-76
2024/01/24 11:48:24;;;;;;;12.35;4.95;;;6.00;95.50;;;;;;4992322;28;20472;-76
2024/01/24 11:50:57;;;;;;;9.65;4.20;;;6.00;95.20;;;;;;4991494;28;20037;-76
2024/01/24 11:53:23;;;;;;;10.00;4.93;;;5.80;95.40;;;;;;4990207;28;20045;-76
2024/01/24 11:56:00;;;;;;;8.43;4.65;;;5.90;95.70;;;;;;4988300;28;20045;-76
2024/01/24 11:58:26;;;;;;;12.55;6.63;;;5.80;95.60;;;;;;4987703;28;20496;-76
2024/01/24 12:01:03;;;;;;;9.30;4.63;;;5.90;95.70;;;;;;4988767;28;20083;-75
2024/01/24 12:03:29;;;;;;;10.35;5.22;;;6.10;95.70;;;;;;4987921;28;20444;-76
2024/01/24 12:05:57;;;;;;;8.48;4.18;;;6.20;95.30;;;;;;4988385;28;20046;-76
2024/01/24 12:08:22;;;;;;;5.43;3.33;;;6.40;95.00;;;;;;4989854;28;20070;-76
2024/01/24 12:10:49;;;;;;;6.13;3.05;;;6.50;94.90;;;;;;4971622;28;20130;-76
2024/01/24 12:13:16;;;;;;;6.40;3.53;;;6.50;94.60;;;;;;4991230;28;20038;-76
2024/01/24 12:15:44;;;;;;;7.95;3.90;;;6.60;94.80;;;;;;4991465;28;20466;-76
2024/01/24 12:18:14;;;;;;;10.07;5.22;;;6.50;95.00;;;;;;4991138;28;20547;-76
2024/01/24 12:20:49;;;;;;;8.15;4.32;;;6.60;94.70;;;;;;4988642;28;20022;-76
2024/01/24 12:23:15;;;;;;;8.57;4.25;;;6.90;94.90;;;;;;4989089;28;20037;-75
2024/01/24 12:25:42;;;;;;;7.03;3.50;;;6.90;94.20;;;;;;4987610;28;20121;-76
2024/01/24 12:28:09;;;;;;;6.93;3.50;;;6.80;94.10;;;;;;4990200;28;20068;-75
2024/01/24 12:30:35;;;;;;;5.25;3.15;;;6.70;93.50;;;;;;4991477;28;20033;-75
2024/01/24 12:33:03;;;;;;;6.05;2.85;;;6.90;94.10;;;;;;4990475;28;20084;-75
2024/01/24 12:35:29;;;;;;;5.88;3.47;;;7.00;94.20;;;;;;4990740;28;20042;-75
2024/01/24 12:37:59;;;;;;;5.55;2.50;;;7.00;94.10;;;;;;4992506;28;20546;-75
2024/01/24 12:40:27;;;;;;;6.65;3.00;;;7.00;93.80;;;;;;4991561;28;20207;-76
2024/01/24 12:42:52;;;;;;;4.55;2.17;;;7.10;93.50;;;;;;4991943;28;20480;-75
2024/01/24 12:45:19;;;;;;;6.55;2.50;;;7.10;93.10;;;;;;4991606;28;20133;-77
2024/01/24 12:47:45;;;;;;;6.43;2.45;;;7.20;93.60;;;;;;4988138;28;20096;-76
2024/01/24 12:50:11;;;;;;;3.92;2.10;;;7.20;93.30;;;;;;4987436;28;20038;-75
2024/01/24 12:52:37;;;;;;;5.15;2.40;;;7.20;93.00;;;;;;4989606;28;20029;-75
2024/01/24 12:55:05;;;;;;;4.72;2.33;;;7.00;93.00;;;;;;4988067;28;20176;-76